Fort Yukon Airport Fort Yukon US
ICAO: PFYU
IATA:
Category: Medium
Scheduled Services:

Elevation: 433 ft
TransAlt. 18000 ft.

Airport Communications:
AWOS 3:125.8
ANCHORAGE CNTR:135
CTAF:122.5
FAIRBANKS RDO:122.1
EIELSON RANGE CON:125.3
TWEB:114.4

PFYU Zoom In..

If you have problems with the map follow the link
https://www.worldairports.se/pages/airport.php?
ICAO=PFYU

Runways:

(A) RW 04 length 5000 ft width 100 ft
---- / hdg 35

(B) RW 22 length 5000 ft width 100 ft
---- / hdg 215

Location; PFYU
Day. 21 / Time. 17.56 Zulu
* Altimeter: 29.66
* Temperature: -03° c. -26.6°f.
* Wind from: 050° Speed 07 kn.
Dewpoint: -04° c.
Visibility: 10 Statute Miles.
Clouds: Overcast 2000 ft.

PFYU 211756Z 05007KT 10SM OVC020 M03/M04 A2966 RMK AO2 SLP070 T10331044 11033 21044 57005


Wind From 050°
Speed 07 kn.

 
 
jpsmedia.com for Web Design worldairports.se 2018   terms of use